createdAt,value
2019-04-10T04:00:34.787Z,7
2019-04-10T04:04:03.614Z,10
2019-04-10T04:07:34.664Z,18
2019-04-10T04:11:05.336Z,28
2019-04-10T04:14:33.189Z,42
2019-04-10T04:18:01.077Z,59
2019-04-10T04:21:31.972Z,81
2019-04-10T04:25:01.792Z,110
2019-04-10T04:28:32.013Z,141
2019-04-10T04:32:02.253Z,176
2019-04-10T04:35:31.115Z,214
2019-04-10T04:39:12.581Z,266
2019-04-10T04:42:33.767Z,329
2019-04-10T04:46:01.635Z,389
2019-04-10T04:49:30.517Z,437
2019-04-10T04:53:00.360Z,496
2019-04-10T04:56:29.184Z,556
2019-04-10T04:59:58.964Z,606
2019-04-10T05:03:29.822Z,650
2019-04-10T05:06:58.656Z,694
2019-04-10T05:10:26.492Z,751
2019-04-10T05:13:55.795Z,800
2019-04-10T05:17:25.308Z,817
2019-04-10T05:20:54.684Z,824
2019-04-10T05:24:22.035Z,853
2019-04-10T05:27:52.427Z,900
2019-04-10T05:31:21.384Z,948
2019-04-10T05:34:52.427Z,984
2019-04-10T05:38:22.773Z,1027
2019-04-10T05:41:50.341Z,1031
2019-04-10T05:45:17.615Z,1026
2019-04-10T05:48:46.222Z,1040
2019-04-10T05:52:18.475Z,1065
2019-04-10T05:55:48.035Z,1161
2019-04-10T05:59:16.897Z,1274
2019-04-10T06:02:44.901Z,1362
2019-04-10T06:06:17.592Z,1437
2019-04-10T06:09:55.499Z,1475
2019-04-10T06:13:21.190Z,1497
2019-04-10T06:16:53.058Z,1443
2019-04-10T06:20:24.996Z,1364
2019-04-10T06:23:56.665Z,1289
2019-04-10T06:27:26.196Z,1220
2019-04-10T06:30:56.216Z,1211
2019-04-10T06:34:27.168Z,1207
2019-04-10T06:37:56.801Z,1213
2019-04-10T06:41:24.277Z,1234
2019-04-10T06:44:52.361Z,1251
2019-04-10T06:48:21.526Z,1271
2019-04-10T06:51:53.450Z,1286
2019-04-10T06:55:24.149Z,1307
2019-04-10T06:58:54.070Z,1332
2019-04-10T07:02:30.566Z,1372
2019-04-10T07:06:11.208Z,1394
2019-04-10T07:09:35.810Z,1399
2019-04-10T07:13:08.597Z,1406
2019-04-10T07:16:38.816Z,1415
2019-04-10T07:20:10.618Z,1422
2019-04-10T07:23:41.467Z,1431
2019-04-10T07:27:17.201Z,1446
2019-04-10T07:30:49.985Z,1461
2019-04-10T07:34:25.475Z,1474
2019-04-10T07:37:58.399Z,1495
2019-04-10T07:41:29.331Z,1507
2019-04-10T07:45:00.200Z,1533
2019-04-10T07:48:28.049Z,1549
2019-04-10T07:51:58.604Z,1570
2019-04-10T07:55:30.831Z,1638
2019-04-10T07:59:00.524Z,1708
2019-04-10T08:02:31.725Z,1766
2019-04-10T08:05:58.935Z,1831
2019-04-10T08:09:29.172Z,1872
2019-04-10T08:12:58.139Z,1909
2019-04-10T08:16:28.483Z,1933
2019-04-10T08:20:01.484Z,2050
2019-04-10T08:23:31.150Z,2162
2019-04-10T08:27:00.893Z,2007
2019-04-10T08:30:32.114Z,2371
2019-04-10T08:34:01.079Z,2835
2019-04-10T08:37:30.661Z,3218
2019-04-10T08:41:00.620Z,3394
2019-04-10T08:44:29.834Z,3267
2019-04-10T08:47:59.404Z,2764
2019-04-10T08:51:28.708Z,2488
2019-04-10T08:55:01.675Z,3100
2019-04-10T08:58:32.826Z,2905
2019-04-10T09:02:03.967Z,2848
2019-04-10T09:05:32.009Z,2608
2019-04-10T09:09:01.817Z,2702
2019-04-10T09:12:31.643Z,2521
2019-04-10T09:16:04.440Z,2561
2019-04-10T09:19:34.283Z,2718
2019-04-10T09:23:36.089Z,2412
2019-04-10T09:26:38.214Z,2621
2019-04-10T09:30:05.336Z,3256
2019-04-10T09:33:35.132Z,3087
2019-04-10T09:37:05.790Z,2969
2019-04-10T09:40:34.762Z,3722
2019-04-10T09:44:06.562Z,4045
2019-04-10T09:47:34.747Z,4261
2019-04-10T09:51:02.254Z,3168
2019-04-10T09:54:34.803Z,3388
2019-04-10T09:58:03.854Z,6463
2019-04-10T10:01:31.683Z,7897
2019-04-10T10:05:28.952Z,8491
2019-04-10T10:08:56.759Z,8477
2019-04-10T10:12:26.564Z,6765
2019-04-10T10:15:54.599Z,6036
2019-04-10T10:19:26.220Z,5244
2019-04-10T10:22:55.712Z,5315
2019-04-10T10:26:23.938Z,5074
2019-04-10T10:29:57.815Z,4688
2019-04-10T10:33:27.881Z,4483
2019-04-10T10:36:56.294Z,4293
2019-04-10T10:40:24.144Z,4442
2019-04-10T10:43:53.949Z,6323
2019-04-10T10:47:22.782Z,7267
2019-04-10T10:50:51.609Z,7389
2019-04-10T10:54:21.050Z,8786
2019-04-10T10:57:52.337Z,9729
2019-04-10T11:01:24.090Z,10486
2019-04-10T11:04:57.827Z,10917
2019-04-10T11:08:27.762Z,18936
2019-04-10T11:11:59.872Z,13958
2019-04-10T11:15:30.361Z,12031
2019-04-10T11:19:00.175Z,12021
2019-04-10T11:22:33.059Z,10345
2019-04-10T11:26:04.628Z,9624
2019-04-10T11:29:37.544Z,11245
2019-04-10T11:33:06.735Z,11616
2019-04-10T11:36:36.147Z,12072
2019-04-10T11:40:09.047Z,12904
2019-04-10T11:43:43.938Z,12864
2019-04-10T11:47:14.846Z,14295
2019-04-10T11:50:48.427Z,10218
2019-04-10T11:54:25.776Z,7296
2019-04-10T11:57:57.588Z,6251
2019-04-10T12:01:30.747Z,4958
2019-04-10T12:05:08.824Z,4218
2019-04-10T12:09:02.394Z,3941
2019-04-10T12:12:09.452Z,3744
2019-04-10T12:15:37.281Z,3624
2019-04-10T12:19:09.078Z,3556
2019-04-10T12:22:38.887Z,3954
2019-04-10T12:26:07.496Z,4293
2019-04-10T12:29:35.008Z,4719
2019-04-10T12:33:03.231Z,5166
2019-04-10T12:36:34.315Z,6068
2019-04-10T12:40:02.096Z,34984
2019-04-10T12:43:32.644Z,6801
2019-04-10T12:47:00.183Z,6106
2019-04-10T12:50:28.658Z,5591
2019-04-10T12:53:58.309Z,4662
2019-04-10T12:57:30.724Z,4179
2019-04-10T13:00:58.353Z,4146
2019-04-10T13:04:32.213Z,4063
2019-04-10T13:08:14.523Z,4351
2019-04-10T13:11:38.611Z,4852
2019-04-10T13:15:09.786Z,4952
2019-04-10T13:18:42.767Z,4722
2019-04-10T13:22:10.000Z,4795
2019-04-10T13:25:42.753Z,5430
2019-04-10T13:29:14.119Z,4421
2019-04-10T13:32:44.420Z,3821
2019-04-10T13:36:15.398Z,3904
2019-04-10T13:39:46.782Z,5856
2019-04-10T13:43:17.986Z,23896
2019-04-10T13:46:47.740Z,49216
2019-04-10T13:50:17.585Z,11195
2019-04-10T13:53:46.075Z,9697
2019-04-10T13:57:18.924Z,11127
2019-04-10T14:00:47.758Z,53184
2019-04-10T14:04:18.790Z,65535
2019-04-10T14:07:49.294Z,11316
2019-04-10T14:11:21.461Z,65535
2019-04-10T14:14:51.013Z,65535
2019-04-10T14:18:22.015Z,29496
2019-04-10T14:21:51.634Z,6234
2019-04-10T14:25:19.744Z,5271
2019-04-10T14:28:49.155Z,6005
2019-04-10T14:32:20.781Z,5293
2019-04-10T14:35:47.906Z,5403
2019-04-10T14:39:21.283Z,12593
2019-04-10T14:42:53.464Z,3231
2019-04-10T14:46:26.242Z,2728
2019-04-10T14:49:58.138Z,2618
2019-04-10T14:53:27.911Z,3726
2019-04-10T14:56:59.650Z,5033
2019-04-10T15:00:28.382Z,11041
2019-04-10T15:04:00.572Z,11822
2019-04-10T15:07:33.020Z,7952
2019-04-10T15:11:04.503Z,6304
2019-04-10T15:14:35.396Z,6717
2019-04-10T15:18:06.613Z,5536
2019-04-10T15:21:34.626Z,4544
2019-04-10T15:25:05.330Z,5157
2019-04-10T15:28:36.023Z,61112
2019-04-10T15:32:04.155Z,65535
2019-04-10T15:35:36.967Z,65535
2019-04-10T15:39:04.791Z,65535
2019-04-10T15:42:32.623Z,64760
2019-04-10T15:46:04.267Z,57536
2019-04-10T15:49:34.471Z,7026
2019-04-10T15:53:06.048Z,5899
2019-04-10T15:56:36.048Z,4650
2019-04-10T16:00:06.636Z,5357
2019-04-10T16:03:41.501Z,4303
2019-04-10T16:07:09.817Z,3870
2019-04-10T16:10:39.239Z,3555
2019-04-10T16:14:20.513Z,3508
2019-04-10T16:17:43.927Z,3464
2019-04-10T16:21:14.528Z,3593
2019-04-10T16:24:42.358Z,3422
2019-04-10T16:28:14.418Z,3270
2019-04-10T16:31:43.979Z,2855
2019-04-10T16:35:16.780Z,2912
2019-04-10T16:38:47.644Z,2512
2019-04-10T16:42:16.527Z,2253
2019-04-10T16:45:44.277Z,2089
2019-04-10T16:49:12.739Z,1954
2019-04-10T16:52:42.170Z,1839
2019-04-10T16:56:11.432Z,1730
2019-04-10T16:59:42.427Z,1622
2019-04-10T17:03:13.280Z,1507
2019-04-10T17:06:46.030Z,1396
2019-04-10T17:10:22.195Z,1286
2019-04-10T17:13:52.732Z,1176
2019-04-10T17:17:24.253Z,1066
2019-04-10T17:20:58.463Z,962
2019-04-10T17:24:29.195Z,862
2019-04-10T17:28:00.075Z,768
2019-04-10T17:31:28.672Z,676
2019-04-10T17:35:01.185Z,584
2019-04-10T17:38:30.921Z,495
2019-04-10T17:42:01.867Z,412
2019-04-10T17:45:34.268Z,339
2019-04-10T17:49:07.251Z,273
2019-04-10T17:52:40.699Z,215
2019-04-10T17:56:13.822Z,165
2019-04-10T17:59:42.704Z,123
2019-04-10T18:03:19.688Z,89
2019-04-10T18:06:51.945Z,62
2019-04-10T18:10:20.360Z,41
2019-04-10T18:13:53.049Z,26
2019-04-10T18:17:20.166Z,16
2019-04-10T18:20:51.120Z,9
2019-04-10T18:24:22.077Z,6
2019-04-10T18:27:50.621Z,4
2019-04-10T18:31:22.457Z,2
2019-04-10T18:34:52.115Z,1
2019-04-10T18:38:23.705Z,1
2019-04-10T18:41:51.954Z,1
2019-04-10T18:45:23.781Z,0
2019-04-10T18:48:56.834Z,0
2019-04-10T18:52:27.491Z,0
2019-04-10T18:55:55.114Z,0
2019-04-10T18:59:23.099Z,0
2019-04-10T19:02:52.893Z,0
2019-04-10T19:06:20.781Z,0
2019-04-10T19:09:49.041Z,0
2019-04-10T19:13:17.405Z,0
2019-04-10T19:16:45.791Z,0
2019-04-10T19:20:14.031Z,0
2019-04-10T19:23:43.386Z,0
2019-04-10T19:27:12.701Z,0
2019-04-10T19:30:45.545Z,0
2019-04-10T19:34:14.926Z,0
2019-04-10T19:37:42.829Z,0
2019-04-10T19:41:24.829Z,0
2019-04-10T19:44:48.670Z,0
2019-04-10T19:48:23.435Z,0
2019-04-10T19:51:55.794Z,0
2019-04-10T19:55:27.444Z,0
2019-04-10T19:58:58.573Z,0
2019-04-10T20:02:28.366Z,0
2019-04-10T20:05:57.579Z,0
2019-04-10T20:09:25.218Z,0
2019-04-10T20:12:55.117Z,0
2019-04-10T20:16:25.615Z,0
2019-04-10T20:19:57.111Z,0
2019-04-10T20:23:29.872Z,0
2019-04-10T20:27:03.530Z,0
2019-04-10T20:30:34.942Z,0
2019-04-10T20:34:03.144Z,0
2019-04-10T20:37:34.512Z,0
2019-04-10T20:41:02.659Z,0
2019-04-10T20:44:30.481Z,0
2019-04-10T20:48:02.323Z,0
2019-04-10T20:51:33.066Z,0
2019-04-10T20:55:01.464Z,0
2019-04-10T20:58:29.453Z,0
2019-04-10T21:01:57.715Z,0
2019-04-10T21:05:29.298Z,0
2019-04-10T21:09:01.071Z,0
2019-04-10T21:12:34.033Z,0
2019-04-10T21:16:04.958Z,0
2019-04-10T21:19:38.514Z,0
2019-04-10T21:23:09.327Z,0
2019-04-10T21:26:37.137Z,0
2019-04-10T21:30:07.160Z,0
2019-04-10T21:33:36.635Z,0
2019-04-10T21:37:06.071Z,0
2019-04-10T21:40:33.371Z,0
2019-04-10T21:44:04.254Z,0
2019-04-10T21:47:35.494Z,0
2019-04-10T21:51:06.767Z,0
2019-04-10T21:54:44.361Z,0
2019-04-10T21:58:12.879Z,0
